createdAt,value
2018-07-13T00:01:34.212Z,56.20
2018-07-13T00:04:00.183Z,57.03
2018-07-13T00:06:26.167Z,56.17
2018-07-13T00:08:52.132Z,56.32
2018-07-13T00:11:18.131Z,56.88
2018-07-13T00:13:44.166Z,57.02
2018-07-13T00:16:10.163Z,56.96
2018-07-13T00:18:36.168Z,56.69
2018-07-13T00:21:02.156Z,56.04
2018-07-13T00:23:28.133Z,56.36
2018-07-13T00:25:54.130Z,56.34
2018-07-13T00:28:20.106Z,56.31
2018-07-13T00:30:46.103Z,56.93
2018-07-13T00:33:12.220Z,57.10
2018-07-13T00:35:38.309Z,57.36
2018-07-13T00:38:04.307Z,56.96
2018-07-13T00:40:30.287Z,56.42
2018-07-13T00:42:56.330Z,56.45
2018-07-13T00:45:22.295Z,56.68
2018-07-13T00:47:48.288Z,56.74
2018-07-13T00:50:14.263Z,56.31
2018-07-13T00:52:40.237Z,56.48
2018-07-13T00:55:06.209Z,57.53
2018-07-13T00:57:32.193Z,56.88
2018-07-13T00:59:58.204Z,57.00
2018-07-13T01:02:24.190Z,56.30
2018-07-13T01:04:50.163Z,57.07
2018-07-13T01:07:16.140Z,57.43
2018-07-13T01:09:42.235Z,56.52
2018-07-13T01:12:08.221Z,57.01
2018-07-13T01:14:34.323Z,57.41
2018-07-13T01:17:00.318Z,57.22
2018-07-13T01:19:26.296Z,56.57
2018-07-13T01:21:52.273Z,56.55
2018-07-13T01:24:18.237Z,56.64
2018-07-13T01:26:44.309Z,57.06
2018-07-13T01:29:10.274Z,57.05
2018-07-13T01:31:36.250Z,57.14
2018-07-13T01:34:02.260Z,57.52
2018-07-13T01:36:28.227Z,57.53
2018-07-13T01:38:54.292Z,56.79
2018-07-13T01:41:20.257Z,56.79
2018-07-13T01:43:46.249Z,57.56
2018-07-13T01:46:12.293Z,57.78
2018-07-13T01:48:38.268Z,57.20
2018-07-13T01:51:04.262Z,57.14
2018-07-13T01:53:30.211Z,57.56
2018-07-13T01:55:56.195Z,56.73
2018-07-13T01:58:22.164Z,57.64
2018-07-13T02:00:48.172Z,57.03
2018-07-13T02:03:14.226Z,56.70
2018-07-13T02:05:40.251Z,57.01
2018-07-13T02:08:06.224Z,57.24
2018-07-13T02:10:32.270Z,57.50
2018-07-13T02:12:58.304Z,56.80
2018-07-13T02:15:24.268Z,57.16
2018-07-13T02:17:50.251Z,56.99
2018-07-13T02:20:16.235Z,57.14
2018-07-13T02:22:42.211Z,56.08
2018-07-13T02:25:08.232Z,57.50
2018-07-13T02:27:34.176Z,57.22
2018-07-13T02:30:00.183Z,57.31
2018-07-13T02:32:26.187Z,57.39
2018-07-13T02:34:52.182Z,56.44
2018-07-13T02:37:18.191Z,56.78
2018-07-13T02:39:44.153Z,56.25
2018-07-13T02:42:10.160Z,57.18
2018-07-13T02:44:36.132Z,57.08
2018-07-13T02:47:02.155Z,56.90
2018-07-13T02:49:28.135Z,57.17
2018-07-13T02:51:54.117Z,57.51
2018-07-13T02:54:20.092Z,56.51
2018-07-13T02:56:46.069Z,56.16
2018-07-13T02:59:12.032Z,56.08
2018-07-13T03:01:37.995Z,56.50
2018-07-13T03:04:03.974Z,56.11
2018-07-13T03:06:29.993Z,56.41
2018-07-13T03:08:56.021Z,56.20
2018-07-13T03:11:22.011Z,56.83
2018-07-13T03:13:48.030Z,56.15
2018-07-13T03:16:14.018Z,56.62
2018-07-13T03:18:40.009Z,56.89
2018-07-13T03:21:06.170Z,56.42
2018-07-13T03:23:32.386Z,55.82
2018-07-13T03:25:58.675Z,57.05
2018-07-13T03:28:24.753Z,57.12
2018-07-13T03:30:50.740Z,56.37
2018-07-13T03:33:16.812Z,56.89
2018-07-13T03:35:42.848Z,57.11
2018-07-13T03:38:08.821Z,57.02
2018-07-13T03:40:34.901Z,56.04
2018-07-13T03:43:00.896Z,56.01
2018-07-13T03:45:27.154Z,56.65
2018-07-13T03:47:53.159Z,56.60
2018-07-13T03:50:19.130Z,55.84
2018-07-13T03:52:45.095Z,56.14
2018-07-13T03:55:11.103Z,57.15
2018-07-13T03:57:37.066Z,56.68
2018-07-13T04:00:03.038Z,56.42
2018-07-13T04:02:29.041Z,56.20
2018-07-13T04:04:55.006Z,57.24
2018-07-13T04:07:20.971Z,56.90
2018-07-13T04:09:46.993Z,57.04
2018-07-13T04:12:13.064Z,56.32
2018-07-13T04:14:39.044Z,57.39
2018-07-13T04:17:05.056Z,56.08
2018-07-13T04:19:31.041Z,56.54
2018-07-13T04:21:57.023Z,57.46
2018-07-13T04:24:23.022Z,57.24
2018-07-13T04:26:49.063Z,57.34
2018-07-13T04:29:15.040Z,56.25
2018-07-13T04:31:41.026Z,56.95
2018-07-13T04:34:07.072Z,57.54
2018-07-13T04:36:33.046Z,56.47
2018-07-13T04:38:59.030Z,56.71
2018-07-13T04:41:24.995Z,57.47
2018-07-13T04:43:51.055Z,56.48
2018-07-13T04:46:17.048Z,56.67
2018-07-13T04:48:43.031Z,57.41
2018-07-13T04:51:09.041Z,56.59
2018-07-13T04:53:35.017Z,57.12
2018-07-13T04:56:01.042Z,57.11
2018-07-13T04:58:27.257Z,56.53
2018-07-13T05:00:53.230Z,56.68
2018-07-13T05:03:19.217Z,57.39
2018-07-13T05:05:45.188Z,56.97
2018-07-13T05:08:11.201Z,57.48
2018-07-13T05:10:37.193Z,57.28
2018-07-13T05:13:03.195Z,56.84
2018-07-13T05:15:29.250Z,57.31
2018-07-13T05:17:55.247Z,57.79
2018-07-13T05:20:21.214Z,56.69
2018-07-13T05:22:47.187Z,57.09
2018-07-13T05:25:13.197Z,57.07
2018-07-13T05:27:39.154Z,56.98
2018-07-13T05:30:05.159Z,56.69
2018-07-13T05:32:31.155Z,57.50
2018-07-13T05:34:57.255Z,56.35
2018-07-13T05:37:23.225Z,57.07
2018-07-13T05:39:49.550Z,57.50
2018-07-13T05:42:15.580Z,57.28
2018-07-13T05:44:41.986Z,57.46
2018-07-13T05:47:07.954Z,56.75
2018-07-13T05:49:33.985Z,57.16
2018-07-13T05:52:00.375Z,57.22
2018-07-13T05:54:26.362Z,56.93
2018-07-13T05:56:52.356Z,57.35
2018-07-13T05:59:18.315Z,57.70
2018-07-13T06:01:44.383Z,57.68
2018-07-13T06:04:10.367Z,56.91
2018-07-13T06:06:36.426Z,57.13
2018-07-13T06:09:02.460Z,57.48
2018-07-13T06:11:28.407Z,57.67
2018-07-13T06:13:54.394Z,57.19
2018-07-13T06:16:20.445Z,56.80
2018-07-13T06:18:46.463Z,57.67
2018-07-13T06:21:12.731Z,57.51
2018-07-13T06:23:38.752Z,57.69
2018-07-13T06:26:04.798Z,57.55
2018-07-13T06:28:30.797Z,56.65
2018-07-13T06:30:56.756Z,57.57
2018-07-13T06:33:22.739Z,57.20
2018-07-13T06:35:48.722Z,56.63
2018-07-13T06:38:14.682Z,57.36
2018-07-13T06:40:40.650Z,58.13
2018-07-13T06:43:06.626Z,57.40
2018-07-13T06:45:32.613Z,57.43
2018-07-13T06:47:58.602Z,57.23
2018-07-13T06:50:24.580Z,57.45
2018-07-13T06:52:50.568Z,58.87
2018-07-13T06:55:16.563Z,58.66
2018-07-13T06:57:42.540Z,57.79
2018-07-13T07:00:08.585Z,57.83
2018-07-13T07:02:34.554Z,57.41
2018-07-13T07:05:00.516Z,57.77
2018-07-13T07:07:26.497Z,56.71
2018-07-13T07:09:52.465Z,57.50
2018-07-13T07:12:18.447Z,57.85
2018-07-13T07:14:44.420Z,58.14
2018-07-13T07:17:10.446Z,57.74
2018-07-13T07:19:36.446Z,58.20
2018-07-13T07:22:02.429Z,58.72
2018-07-13T07:24:28.460Z,58.46
2018-07-13T07:26:54.419Z,58.42
2018-07-13T07:29:20.444Z,58.84
2018-07-13T07:31:46.408Z,58.69
2018-07-13T07:34:12.386Z,59.23
2018-07-13T07:36:38.364Z,59.21
2018-07-13T07:39:04.326Z,58.15
2018-07-13T07:41:30.319Z,58.87
2018-07-13T07:43:56.347Z,58.52
2018-07-13T07:46:22.303Z,57.62
2018-07-13T07:48:48.274Z,58.31
2018-07-13T07:51:14.241Z,57.96
2018-07-13T07:53:40.237Z,58.04
2018-07-13T07:56:06.928Z,57.09
2018-07-13T07:58:32.926Z,58.98
2018-07-13T08:00:58.919Z,58.49
2018-07-13T08:03:24.922Z,57.77
2018-07-13T08:05:50.908Z,59.18
2018-07-13T08:08:16.895Z,58.04
2018-07-13T08:10:42.888Z,58.21
2018-07-13T08:13:08.863Z,57.58
2018-07-13T08:15:34.840Z,58.39
2018-07-13T08:18:00.867Z,58.37
2018-07-13T08:20:26.839Z,58.67
2018-07-13T08:22:52.808Z,57.54
2018-07-13T08:25:18.841Z,57.55
2018-07-13T08:27:44.814Z,58.44
2018-07-13T08:30:10.784Z,58.51
2018-07-13T08:32:36.749Z,58.66
2018-07-13T08:35:02.729Z,58.13
2018-07-13T08:37:28.734Z,58.94
2018-07-13T08:39:54.729Z,57.66
2018-07-13T08:42:20.708Z,57.85
2018-07-13T08:44:46.712Z,57.93
2018-07-13T08:47:12.694Z,58.16
2018-07-13T08:49:38.724Z,57.89
2018-07-13T08:52:04.694Z,58.25
2018-07-13T08:54:30.689Z,57.82
2018-07-13T08:56:56.648Z,58.34
2018-07-13T08:59:22.619Z,57.35
2018-07-13T09:01:48.597Z,57.94
2018-07-13T09:04:14.642Z,58.03
2018-07-13T09:06:40.575Z,57.41
2018-07-13T09:09:06.550Z,58.11
2018-07-13T09:11:32.563Z,57.48
2018-07-13T09:13:58.535Z,57.39
2018-07-13T09:16:24.487Z,58.09
2018-07-13T09:18:50.448Z,58.11
2018-07-13T09:21:16.420Z,58.01
2018-07-13T09:23:42.401Z,57.35
2018-07-13T09:26:08.351Z,57.03
2018-07-13T09:28:34.303Z,57.53
2018-07-13T09:31:00.296Z,58.17
2018-07-13T09:33:26.266Z,56.86
2018-07-13T09:35:52.223Z,57.21
2018-07-13T09:38:18.293Z,57.46
2018-07-13T09:40:44.200Z,57.90
2018-07-13T09:43:10.222Z,57.33
2018-07-13T09:45:36.202Z,57.95
2018-07-13T09:48:02.198Z,57.23
2018-07-13T09:50:28.172Z,56.91
2018-07-13T09:52:54.145Z,57.93
2018-07-13T09:55:20.290Z,56.70
2018-07-13T09:57:46.282Z,57.16
2018-07-13T10:00:12.254Z,57.47
2018-07-13T10:02:38.248Z,57.45
2018-07-13T10:05:04.232Z,57.58
2018-07-13T10:07:30.232Z,56.69
2018-07-13T10:09:56.507Z,57.79
2018-07-13T10:12:22.483Z,58.08
2018-07-13T10:14:48.492Z,58.39
2018-07-13T10:17:14.460Z,57.65
2018-07-13T10:19:40.444Z,57.20
2018-07-13T10:22:06.511Z,57.87
2018-07-13T10:24:33.699Z,57.04
2018-07-13T10:26:59.656Z,57.32
2018-07-13T10:29:25.666Z,57.27
2018-07-13T10:31:51.624Z,57.24
2018-07-13T10:34:17.793Z,57.14
2018-07-13T10:36:43.773Z,58.03
2018-07-13T10:39:09.774Z,57.80
2018-07-13T10:41:36.577Z,57.16
2018-07-13T10:44:02.582Z,56.89
2018-07-13T10:46:28.557Z,56.78
2018-07-13T10:48:54.539Z,57.93
2018-07-13T10:51:20.566Z,56.95
2018-07-13T10:53:46.528Z,56.66
2018-07-13T10:56:12.543Z,57.66
2018-07-13T10:58:38.542Z,57.80
2018-07-13T11:01:04.518Z,57.98
2018-07-13T11:03:30.541Z,58.21
2018-07-13T11:05:56.530Z,57.67
2018-07-13T11:08:22.540Z,57.67
2018-07-13T11:10:48.550Z,57.80
2018-07-13T11:13:14.530Z,57.94
2018-07-13T11:15:40.529Z,57.44
2018-07-13T11:18:06.531Z,57.38
2018-07-13T11:20:32.536Z,56.87
2018-07-13T11:22:58.498Z,57.41
2018-07-13T11:25:24.452Z,57.70
2018-07-13T11:27:50.859Z,56.75
2018-07-13T11:30:16.910Z,57.25
2018-07-13T11:32:42.879Z,56.92
2018-07-13T11:35:08.869Z,57.08
2018-07-13T11:37:34.853Z,57.31
2018-07-13T11:40:00.884Z,57.01
2018-07-13T11:42:26.845Z,58.06
2018-07-13T11:44:52.831Z,57.16
2018-07-13T11:47:18.840Z,57.36
2018-07-13T11:49:44.816Z,57.03
2018-07-13T11:52:10.878Z,57.27
2018-07-13T11:54:36.810Z,57.12
2018-07-13T11:57:02.783Z,57.83
2018-07-13T11:59:28.766Z,56.69
2018-07-13T12:01:54.756Z,56.45
2018-07-13T12:04:20.955Z,57.43
2018-07-13T12:06:46.967Z,57.93
2018-07-13T12:09:12.925Z,57.85
2018-07-13T12:11:38.932Z,57.31
2018-07-13T12:14:04.922Z,57.30
2018-07-13T12:16:30.906Z,57.02
2018-07-13T12:18:56.861Z,57.12
2018-07-13T12:21:22.827Z,57.75
2018-07-13T12:23:48.784Z,57.55
2018-07-13T12:26:14.781Z,57.34
2018-07-13T12:28:40.769Z,57.05
2018-07-13T12:31:06.783Z,57.49
2018-07-13T12:33:32.774Z,57.23
2018-07-13T12:35:58.746Z,57.86
2018-07-13T12:38:24.731Z,56.53
2018-07-13T12:40:50.826Z,57.11
2018-07-13T12:43:16.857Z,57.01
2018-07-13T12:45:44.148Z,57.24
2018-07-13T12:48:10.105Z,57.84
2018-07-13T12:50:36.393Z,57.52
2018-07-13T12:53:02.370Z,57.23
2018-07-13T12:55:28.348Z,57.09
2018-07-13T12:57:54.669Z,57.23
2018-07-13T13:00:20.637Z,56.83
2018-07-13T13:02:46.612Z,56.95
2018-07-13T13:05:12.589Z,56.89
2018-07-13T13:07:38.587Z,56.68
2018-07-13T13:10:04.546Z,56.63
2018-07-13T13:12:30.609Z,57.71
2018-07-13T13:14:56.576Z,56.88
2018-07-13T13:17:22.577Z,57.49
2018-07-13T13:19:48.610Z,57.19
2018-07-13T13:22:14.588Z,56.64
2018-07-13T13:24:40.640Z,57.54
2018-07-13T13:27:06.608Z,57.16
2018-07-13T13:29:32.597Z,56.76
2018-07-13T13:31:58.660Z,56.89
2018-07-13T13:34:24.664Z,56.65
2018-07-13T13:36:50.697Z,57.90
2018-07-13T13:39:16.969Z,57.72
2018-07-13T13:41:42.942Z,57.58
2018-07-13T13:44:08.931Z,57.31
2018-07-13T13:46:34.894Z,56.67
2018-07-13T13:49:00.980Z,57.71
2018-07-13T13:51:27.024Z,57.15
2018-07-13T13:53:53.018Z,57.21
2018-07-13T13:56:18.987Z,57.00
2018-07-13T13:58:44.966Z,57.94
2018-07-13T14:01:10.968Z,56.57
2018-07-13T14:03:36.955Z,57.77
2018-07-13T14:06:02.954Z,57.10
2018-07-13T14:08:28.952Z,57.79
2018-07-13T14:10:54.933Z,57.33
2018-07-13T14:13:20.904Z,57.85
2018-07-13T14:15:46.892Z,57.43
2018-07-13T14:18:12.868Z,57.91
2018-07-13T14:20:38.906Z,57.22
2018-07-13T14:23:04.880Z,57.08
2018-07-13T14:25:30.859Z,57.86
2018-07-13T14:27:56.841Z,56.78
2018-07-13T14:30:22.812Z,57.67
2018-07-13T14:32:48.826Z,58.13
2018-07-13T14:35:14.813Z,57.29
2018-07-13T14:37:40.804Z,57.43
2018-07-13T14:40:08.710Z,57.84
2018-07-13T14:42:34.719Z,57.22
2018-07-13T14:45:00.750Z,57.38
2018-07-13T14:47:26.756Z,57.74
2018-07-13T14:49:52.804Z,57.65
2018-07-13T14:52:18.794Z,58.02
2018-07-13T14:54:44.760Z,57.58
2018-07-13T14:57:10.761Z,56.89
2018-07-13T14:59:36.786Z,58.11
2018-07-13T15:02:02.782Z,57.44
2018-07-13T15:04:28.789Z,58.02
2018-07-13T15:06:54.845Z,57.21
2018-07-13T15:09:20.851Z,57.26
2018-07-13T15:11:46.863Z,57.51
2018-07-13T15:14:12.867Z,57.44
2018-07-13T15:16:38.855Z,57.85
2018-07-13T15:19:04.839Z,58.08
2018-07-13T15:21:30.819Z,57.25
2018-07-13T15:23:56.811Z,57.45
2018-07-13T15:26:22.789Z,57.98
2018-07-13T15:28:48.772Z,57.72
2018-07-13T15:31:14.755Z,56.53
2018-07-13T15:33:40.722Z,57.61
2018-07-13T15:36:06.988Z,57.28
2018-07-13T15:38:32.975Z,57.71
2018-07-13T15:40:58.973Z,57.23
2018-07-13T15:43:25.090Z,57.47
2018-07-13T15:45:51.004Z,57.17
2018-07-13T15:48:16.984Z,57.53
2018-07-13T15:50:42.991Z,56.92
2018-07-13T15:53:08.942Z,57.92
2018-07-13T15:55:34.926Z,57.25
2018-07-13T15:58:00.893Z,57.05
2018-07-13T16:00:26.895Z,57.45
2018-07-13T16:02:52.904Z,57.66
2018-07-13T16:05:19.000Z,57.70
2018-07-13T16:07:44.866Z,56.97
2018-07-13T16:10:11.074Z,56.85
2018-07-13T16:12:37.082Z,57.93
2018-07-13T16:15:03.034Z,56.47
2018-07-13T16:17:28.993Z,57.60
2018-07-13T16:19:54.997Z,56.45
2018-07-13T16:22:20.983Z,57.73
2018-07-13T16:24:46.977Z,57.23
2018-07-13T16:27:13.208Z,57.24
2018-07-13T16:29:39.200Z,57.26
2018-07-13T16:32:05.386Z,58.03
2018-07-13T16:34:31.352Z,57.31
2018-07-13T16:36:57.353Z,57.07
2018-07-13T16:39:23.351Z,56.82
2018-07-13T16:41:49.328Z,57.36
2018-07-13T16:44:15.313Z,57.33
2018-07-13T16:46:41.311Z,57.36
2018-07-13T16:49:07.554Z,57.68
2018-07-13T16:51:33.539Z,57.61
2018-07-13T16:53:59.518Z,57.56
2018-07-13T16:56:25.522Z,57.49
2018-07-13T16:58:51.486Z,57.82
2018-07-13T17:01:17.497Z,57.65
2018-07-13T17:03:43.488Z,57.00
2018-07-13T17:06:09.476Z,57.47
2018-07-13T17:08:35.448Z,58.04
2018-07-13T17:11:01.451Z,57.15
2018-07-13T17:13:27.517Z,57.98
2018-07-13T17:15:53.560Z,57.15
2018-07-13T17:18:19.542Z,57.16
2018-07-13T17:20:45.523Z,57.57
2018-07-13T17:23:11.532Z,57.69
2018-07-13T17:25:37.525Z,57.68
2018-07-13T17:28:03.497Z,57.19
2018-07-13T17:30:29.499Z,56.92
2018-07-13T17:32:55.485Z,57.28
2018-07-13T17:35:21.464Z,56.71
2018-07-13T17:37:47.754Z,57.57
2018-07-13T17:40:13.731Z,57.29
2018-07-13T17:42:39.793Z,57.12
2018-07-13T17:45:05.734Z,57.70
2018-07-13T17:47:31.697Z,57.24
2018-07-13T17:49:57.718Z,57.05
2018-07-13T17:52:23.692Z,57.48
2018-07-13T17:54:50.029Z,57.19
2018-07-13T17:57:16.023Z,57.85
2018-07-13T17:59:42.009Z,57.79
2018-07-13T18:02:07.984Z,57.11
2018-07-13T18:04:33.993Z,57.04
2018-07-13T18:06:59.981Z,57.03
2018-07-13T18:09:26.322Z,57.76
2018-07-13T18:11:52.324Z,57.96
2018-07-13T18:14:18.311Z,57.40
2018-07-13T18:16:44.285Z,57.00
2018-07-13T18:19:10.285Z,57.69
2018-07-13T18:21:36.325Z,57.74
2018-07-13T18:24:02.288Z,57.56
2018-07-13T18:26:28.284Z,57.94
2018-07-13T18:28:54.280Z,58.02
2018-07-13T18:31:20.253Z,56.63
2018-07-13T18:33:46.229Z,56.64
2018-07-13T18:36:12.217Z,58.25
2018-07-13T18:38:38.280Z,58.06
2018-07-13T18:41:04.231Z,58.40
2018-07-13T18:43:30.255Z,57.66
2018-07-13T18:45:56.247Z,57.63
2018-07-13T18:48:22.482Z,57.07
2018-07-13T18:50:48.498Z,57.69
2018-07-13T18:53:14.448Z,57.28
2018-07-13T18:55:40.429Z,57.41
2018-07-13T18:58:06.402Z,57.22
2018-07-13T19:00:32.404Z,56.94
2018-07-13T19:02:58.473Z,56.92
2018-07-13T19:05:24.489Z,56.72
2018-07-13T19:07:50.534Z,57.54
2018-07-13T19:10:16.513Z,56.28
2018-07-13T19:12:42.572Z,57.38
2018-07-13T19:15:08.571Z,56.24
2018-07-13T19:17:34.613Z,56.22
2018-07-13T19:20:00.644Z,55.56
2018-07-13T19:22:26.771Z,55.26
2018-07-13T19:24:52.809Z,54.66
2018-07-13T19:27:18.792Z,53.86
2018-07-13T19:29:44.793Z,53.30
2018-07-13T19:32:10.767Z,54.48
2018-07-13T19:34:36.820Z,53.87
2018-07-13T19:37:02.835Z,54.38
2018-07-13T19:39:28.812Z,52.59
2018-07-13T19:41:54.808Z,55.87
2018-07-13T19:44:20.847Z,55.36
2018-07-13T19:46:46.850Z,57.65
2018-07-13T19:49:12.855Z,56.81
2018-07-13T19:51:38.854Z,57.31
2018-07-13T19:54:04.801Z,57.79
2018-07-13T19:56:30.910Z,56.68
2018-07-13T19:58:56.871Z,57.28
2018-07-13T20:01:23.911Z,57.27
2018-07-13T20:03:49.878Z,57.63
2018-07-13T20:06:15.923Z,57.67
2018-07-13T20:08:41.896Z,55.98
2018-07-13T20:11:07.928Z,56.87
2018-07-13T20:13:33.944Z,56.32
2018-07-13T20:15:59.881Z,57.13
2018-07-13T20:18:25.828Z,57.01
2018-07-13T20:20:51.876Z,56.61
2018-07-13T20:23:17.858Z,56.57
2018-07-13T20:25:43.820Z,56.04
2018-07-13T20:28:09.786Z,56.37
2018-07-13T20:30:35.783Z,56.96
2018-07-13T20:33:01.802Z,57.53
2018-07-13T20:35:27.796Z,56.26
2018-07-13T20:37:53.833Z,56.74
2018-07-13T20:40:19.808Z,56.68
2018-07-13T20:42:45.824Z,56.89
2018-07-13T20:45:11.822Z,56.33
2018-07-13T20:47:37.805Z,56.01
2018-07-13T20:50:03.751Z,56.02
2018-07-13T20:52:29.716Z,56.04
2018-07-13T20:54:55.888Z,55.98
2018-07-13T20:57:21.857Z,55.50
2018-07-13T20:59:47.856Z,55.71
2018-07-13T21:02:13.840Z,57.16
2018-07-13T21:04:39.858Z,56.35
2018-07-13T21:07:05.887Z,55.71
2018-07-13T21:09:31.936Z,55.81
2018-07-13T21:11:57.936Z,55.76
2018-07-13T21:14:23.938Z,56.56
2018-07-13T21:16:49.907Z,55.65
2018-07-13T21:19:15.916Z,55.79
2018-07-13T21:21:42.000Z,55.58
2018-07-13T21:24:08.006Z,54.46
2018-07-13T21:26:34.000Z,55.53
2018-07-13T21:28:59.973Z,54.30
2018-07-13T21:31:26.061Z,55.43
2018-07-13T21:33:52.046Z,55.01
2018-07-13T21:36:18.059Z,55.08
2018-07-13T21:38:44.036Z,55.35
2018-07-13T21:41:10.033Z,55.04
2018-07-13T21:43:36.004Z,55.99
2018-07-13T21:46:02.099Z,54.64
2018-07-13T21:48:28.330Z,54.45
2018-07-13T21:50:54.326Z,55.02
2018-07-13T21:53:20.500Z,55.23
2018-07-13T21:55:46.484Z,54.45
2018-07-13T21:58:12.480Z,55.74
2018-07-13T22:00:38.492Z,53.66
2018-07-13T22:03:04.515Z,54.49
2018-07-13T22:05:30.546Z,54.61
2018-07-13T22:07:56.515Z,54.98
2018-07-13T22:10:22.541Z,54.59
2018-07-13T22:12:48.536Z,54.90
2018-07-13T22:15:14.551Z,54.59
2018-07-13T22:17:40.588Z,55.36
2018-07-13T22:20:07.459Z,55.07
2018-07-13T22:22:33.454Z,53.73
2018-07-13T22:24:59.425Z,54.77
2018-07-13T22:27:25.426Z,55.32
2018-07-13T22:29:51.655Z,55.40
2018-07-13T22:32:17.780Z,55.25
2018-07-13T22:34:43.786Z,55.36
2018-07-13T22:37:09.831Z,53.96
2018-07-13T22:39:35.835Z,54.06
2018-07-13T22:42:01.815Z,54.88
2018-07-13T22:44:28.013Z,54.25
2018-07-13T22:46:53.998Z,54.19
2018-07-13T22:49:20.016Z,54.82
2018-07-13T22:51:45.997Z,54.14
2018-07-13T22:54:12.028Z,54.55
2018-07-13T22:56:38.047Z,54.28
2018-07-13T22:59:04.065Z,53.72
2018-07-13T23:01:30.041Z,53.65
2018-07-13T23:03:56.026Z,54.56
2018-07-13T23:06:22.068Z,54.46
2018-07-13T23:08:48.102Z,54.68
2018-07-13T23:11:14.073Z,54.76
2018-07-13T23:13:40.049Z,54.67
2018-07-13T23:16:05.984Z,53.59
2018-07-13T23:18:32.239Z,54.76
2018-07-13T23:20:58.258Z,53.68
2018-07-13T23:23:24.236Z,53.81
2018-07-13T23:25:50.260Z,54.34
2018-07-13T23:28:16.308Z,54.21
2018-07-13T23:30:42.327Z,54.52
2018-07-13T23:33:08.331Z,54.06
2018-07-13T23:35:34.377Z,53.78
2018-07-13T23:38:00.327Z,53.70
2018-07-13T23:40:26.276Z,54.47
2018-07-13T23:42:52.259Z,54.60
2018-07-13T23:45:18.269Z,53.67
2018-07-13T23:47:44.268Z,53.23
2018-07-13T23:50:10.601Z,54.18
2018-07-13T23:52:36.805Z,54.52
2018-07-13T23:55:03.022Z,54.60
2018-07-13T23:57:29.099Z,54.38
2018-07-13T23:59:55.140Z,53.65
